Witamy     NOTAM     FEEDBACK     Informacje     Wydarzenia     O nas      FIR Warszawa      Kontrolerzy     Piloci     Lotniska     Pliki     Linki     Forum    

Aktualna pogoda

METAR

EPBY 181400Z 29011KT 9999 BKN029 01/M05 Q1014
EPGD 181400Z 29016KT 9999 FEW020 M01/M05 Q1011 R11/290095
EPKK 181400Z 27014KT 9999 FEW025CB BKN040 01/M02 Q1014 R25/41//95
EPKT 181400Z 30011KT 9999 -SN BKN011 BKN014 OVC017 M01/M03 Q1014
EPLB 181400Z 30010KT 9999 SCT026CB 01/M01 Q1011
EPLL 181400Z 29010KT 9999 SCT021CB BKN025 01/M04 Q1014 R25/29//95
EPMO 181400Z 31011KT 9999 SCT026 00/M06 Q1013 R08/290195
EPPO 181400Z 31010KT 9999 BKN016 00/M02 Q1016 R10/29//95
EPRZ 181400Z 29011KT 9999 BKN027 02/M03 Q1013
EPSC 181400Z 24006KT 200V270 9999 SCT044 01/M04 Q1015
EPSY 181400Z 27007KT 240V310 9999 SCT021 BKN043 M01/M03 Q1011 R01/290195
EPWA 181400Z 32011KT 280V340 9999 SCT030 01/M05 Q1012 NOSIG
EPWR 181400Z 31011KT 9999 SCT021 M00/M04 Q1018
EPZG 181400Z 25009KT 220V280 9999 FEW028 01/M04 Q1018

METAR - MIL

EPCE 181400Z 28007KT CAVOK M01/M04 Q1011 RMK M014 081 0/0=
EPDA 181400Z 30012KT 9999 FEW031 SCT075 BKN200 03/M02 Q1013 RMK 026 069 5/2=
EPDE 181400Z 29012KT 9999 SCT020 BKN050 01/M03 Q1012 RMK 007 078 6/4=
EPIR 181400Z 28016KT 9999 SCT030 01/M04 Q1014 RMK 010 067 3/3=
EPKS 181400Z 28011KT 9999 SCT020 M00/M03 Q1016 RMK M005 082 4/4=
EPLK 181400Z 31011KT 9999 SCT018 BKN030 00/M03 Q1014 RMK 001 080 7/3=
EPLY 181400Z 30008KT 9999 SCT020 BKN050 01/M03 Q1014 RMK 008 073 5/3=
EPMB 181400Z 30014KT 9999 SCT030 01/M04 Q1012 RMK 013 066 3/3=
EPMI 181400Z 25004KT 220V290 9999 SCT014 M01/M03 Q1015 RMK M006 083 4/4=
EPMM 181400Z 31012KT 9999 SCT012 M00/M03 Q1012 RMK M001 081 4/4=
EPOK 181400Z 29011KT 9999 FEW032 M00/M04 Q1011 RMK M001 077 1/1=
EPPR 181400Z 28010KT 9999 FEW036 01/M04 Q1012 RMK 006 069 2/2=
EPPW 181400Z 29016KT 9999 BKN024 00/M04 Q1015 RMK 004 071 5/5 =
EPRA 181400Z 31010KT 270V340 9999 SCT020 BKN039 01/M01 Q1012
EPSN 181400Z 26010KT 9999 SCT020 00/M03 Q1014 RMK 000 079 3/3=
EPTM 181400Z 29008KT 9999 SCT024 BKN050 01/M04 Q1013 RMK 007 071 7/3=

 

 
© 2001 Polish VACC
[logowanie]